sensor_id;sensor_type;location;lat;lon;timestamp;temperature;humidity
51615;DHT22;37695;52.960;6.188;2022-11-03T00:01:07;11.00;99.90
51615;DHT22;37695;52.960;6.188;2022-11-03T00:03:32;11.00;99.90
51615;DHT22;37695;52.960;6.188;2022-11-03T00:05:58;11.00;99.90
51615;DHT22;37695;52.960;6.188;2022-11-03T00:08:34;11.10;99.90
51615;DHT22;37695;52.960;6.188;2022-11-03T00:11:11;11.10;99.90
51615;DHT22;37695;52.960;6.188;2022-11-03T00:13:39;11.10;99.90
51615;DHT22;37695;52.960;6.188;2022-11-03T00:16:06;11.00;99.90
51615;DHT22;37695;52.960;6.188;2022-11-03T00:18:32;11.10;99.90
51615;DHT22;37695;52.960;6.188;2022-11-03T00:20:59;11.10;99.90
51615;DHT22;37695;52.960;6.188;2022-11-03T00:23:30;11.00;99.90
51615;DHT22;37695;52.960;6.188;2022-11-03T00:26:08;11.00;99.90
51615;DHT22;37695;52.960;6.188;2022-11-03T00:28:35;11.00;99.90
51615;DHT22;37695;52.960;6.188;2022-11-03T00:31:04;11.00;99.90
51615;DHT22;37695;52.960;6.188;2022-11-03T00:33:31;11.00;99.90
51615;DHT22;37695;52.960;6.188;2022-11-03T00:35:57;10.90;99.90
51615;DHT22;37695;52.960;6.188;2022-11-03T00:38:23;10.80;99.90
51615;DHT22;37695;52.960;6.188;2022-11-03T00:40:53;10.80;99.90
51615;DHT22;37695;52.960;6.188;2022-11-03T00:43:21;10.80;99.90
51615;DHT22;37695;52.960;6.188;2022-11-03T00:45:47;10.80;99.90
51615;DHT22;37695;52.960;6.188;2022-11-03T00:48:13;10.80;99.90
51615;DHT22;37695;52.960;6.188;2022-11-03T00:53:32;10.70;99.90
51615;DHT22;37695;52.960;6.188;2022-11-03T00:55:58;10.70;99.90
51615;DHT22;37695;52.960;6.188;2022-11-03T00:58:24;10.60;99.90
51615;DHT22;37695;52.960;6.188;2022-11-03T01:00:50;10.50;99.90
51615;DHT22;37695;52.960;6.188;2022-11-03T01:03:15;10.50;99.90
51615;DHT22;37695;52.960;6.188;2022-11-03T01:05:42;10.50;99.90
51615;DHT22;37695;52.960;6.188;2022-11-03T01:08:33;10.60;99.90
51615;DHT22;37695;52.960;6.188;2022-11-03T01:11:10;10.60;99.90
51615;DHT22;37695;52.960;6.188;2022-11-03T01:13:55;10.50;99.90
51615;DHT22;37695;52.960;6.188;2022-11-03T01:16:21;10.50;99.90
51615;DHT22;37695;52.960;6.188;2022-11-03T01:18:47;10.50;99.90
51615;DHT22;37695;52.960;6.188;2022-11-03T01:21:13;10.50;99.90
51615;DHT22;37695;52.960;6.188;2022-11-03T01:23:39;10.50;99.90
51615;DHT22;37695;52.960;6.188;2022-11-03T01:26:06;10.50;99.90
51615;DHT22;37695;52.960;6.188;2022-11-03T01:28:33;10.50;99.90
51615;DHT22;37695;52.960;6.188;2022-11-03T01:31:07;10.50;99.90
51615;DHT22;37695;52.960;6.188;2022-11-03T01:33:33;10.50;99.90
51615;DHT22;37695;52.960;6.188;2022-11-03T01:35:58;10.40;99.90
51615;DHT22;37695;52.960;6.188;2022-11-03T01:38:24;10.40;99.90
51615;DHT22;37695;52.960;6.188;2022-11-03T01:40:50;10.30;99.90
51615;DHT22;37695;52.960;6.188;2022-11-03T01:43:20;10.30;99.90
51615;DHT22;37695;52.960;6.188;2022-11-03T01:45:48;10.30;99.90
51615;DHT22;37695;52.960;6.188;2022-11-03T01:48:16;10.50;99.90
51615;DHT22;37695;52.960;6.188;2022-11-03T01:50:43;10.40;99.90
51615;DHT22;37695;52.960;6.188;2022-11-03T01:53:11;10.40;99.90
51615;DHT22;37695;52.960;6.188;2022-11-03T01:55:38;10.40;99.90
51615;DHT22;37695;52.960;6.188;2022-11-03T01:58:13;10.40;99.90
51615;DHT22;37695;52.960;6.188;2022-11-03T02:00:42;10.40;99.90
51615;DHT22;37695;52.960;6.188;2022-11-03T02:03:09;10.30;99.90
51615;DHT22;37695;52.960;6.188;2022-11-03T02:05:36;10.30;99.90
51615;DHT22;37695;52.960;6.188;2022-11-03T02:08:14;10.30;99.90
51615;DHT22;37695;52.960;6.188;2022-11-03T02:10:41;10.30;99.90
51615;DHT22;37695;52.960;6.188;2022-11-03T02:13:14;10.30;99.90
51615;DHT22;37695;52.960;6.188;2022-11-03T02:15:41;10.30;99.90
51615;DHT22;37695;52.960;6.188;2022-11-03T02:18:08;10.30;99.90
51615;DHT22;37695;52.960;6.188;2022-11-03T02:20:34;10.40;99.90
51615;DHT22;37695;52.960;6.188;2022-11-03T02:25:59;10.30;99.90
51615;DHT22;37695;52.960;6.188;2022-11-03T02:28:29;10.20;99.90
51615;DHT22;37695;52.960;6.188;2022-11-03T02:31:17;10.30;99.90
51615;DHT22;37695;52.960;6.188;2022-11-03T02:33:56;10.30;99.90
51615;DHT22;37695;52.960;6.188;2022-11-03T02:36:35;10.30;99.90
51615;DHT22;37695;52.960;6.188;2022-11-03T02:41:36;10.30;99.90
51615;DHT22;37695;52.960;6.188;2022-11-03T02:44:03;10.30;99.90
51615;DHT22;37695;52.960;6.188;2022-11-03T02:46:31;10.60;99.90
51615;DHT22;37695;52.960;6.188;2022-11-03T02:48:56;10.30;99.90
51615;DHT22;37695;52.960;6.188;2022-11-03T02:51:23;10.40;99.90
51615;DHT22;37695;52.960;6.188;2022-11-03T02:54:12;10.30;99.90
51615;DHT22;37695;52.960;6.188;2022-11-03T02:56:45;10.30;99.90
51615;DHT22;37695;52.960;6.188;2022-11-03T02:59:17;10.30;99.90
51615;DHT22;37695;52.960;6.188;2022-11-03T03:02:21;10.30;99.90
51615;DHT22;37695;52.960;6.188;2022-11-03T03:04:54;10.30;99.90
51615;DHT22;37695;52.960;6.188;2022-11-03T03:07:25;10.30;99.90
51615;DHT22;37695;52.960;6.188;2022-11-03T03:10:11;10.30;99.90
51615;DHT22;37695;52.960;6.188;2022-11-03T03:12:45;10.30;99.90
51615;DHT22;37695;52.960;6.188;2022-11-03T03:15:12;10.30;99.90
51615;DHT22;37695;52.960;6.188;2022-11-03T03:17:50;10.30;99.90
51615;DHT22;37695;52.960;6.188;2022-11-03T03:20:24;10.30;99.90
51615;DHT22;37695;52.960;6.188;2022-11-03T03:23:08;10.40;99.90
51615;DHT22;37695;52.960;6.188;2022-11-03T03:25:47;10.30;99.90
51615;DHT22;37695;52.960;6.188;2022-11-03T03:28:20;10.40;99.90
51615;DHT22;37695;52.960;6.188;2022-11-03T03:30:48;10.40;99.90
51615;DHT22;37695;52.960;6.188;2022-11-03T03:33:14;10.30;99.90
51615;DHT22;37695;52.960;6.188;2022-11-03T03:35:44;10.30;99.90
51615;DHT22;37695;52.960;6.188;2022-11-03T03:38:16;10.30;99.90
51615;DHT22;37695;52.960;6.188;2022-11-03T03:40:46;10.30;99.90
51615;DHT22;37695;52.960;6.188;2022-11-03T03:43:15;10.30;99.90
51615;DHT22;37695;52.960;6.188;2022-11-03T03:45:43;10.30;99.90
51615;DHT22;37695;52.960;6.188;2022-11-03T03:48:10;10.30;99.90
51615;DHT22;37695;52.960;6.188;2022-11-03T03:50:37;10.30;99.90
51615;DHT22;37695;52.960;6.188;2022-11-03T03:53:06;10.30;99.90
51615;DHT22;37695;52.960;6.188;2022-11-03T03:55:38;10.30;99.90
51615;DHT22;37695;52.960;6.188;2022-11-03T03:58:05;10.30;99.90
51615;DHT22;37695;52.960;6.188;2022-11-03T04:00:32;10.30;99.90
51615;DHT22;37695;52.960;6.188;2022-11-03T04:02:57;10.40;99.90
51615;DHT22;37695;52.960;6.188;2022-11-03T04:05:25;10.80;99.90
51615;DHT22;37695;52.960;6.188;2022-11-03T04:07:50;10.40;99.90
51615;DHT22;37695;52.960;6.188;2022-11-03T04:10:21;10.40;99.90
51615;DHT22;37695;52.960;6.188;2022-11-03T04:12:47;10.50;99.90
51615;DHT22;37695;52.960;6.188;2022-11-03T04:15:31;10.50;99.90
51615;DHT22;37695;52.960;6.188;2022-11-03T04:18:26;10.50;99.90
51615;DHT22;37695;52.960;6.188;2022-11-03T04:21:12;10.60;99.90
51615;DHT22;37695;52.960;6.188;2022-11-03T04:23:57;10.60;99.90
51615;DHT22;37695;52.960;6.188;2022-11-03T04:26:26;10.70;99.90
51615;DHT22;37695;52.960;6.188;2022-11-03T04:28:53;10.70;99.90
51615;DHT22;37695;52.960;6.188;2022-11-03T04:31:20;10.70;99.90
51615;DHT22;37695;52.960;6.188;2022-11-03T04:33:47;10.90;99.90
51615;DHT22;37695;52.960;6.188;2022-11-03T04:36:21;10.80;99.90
51615;DHT22;37695;52.960;6.188;2022-11-03T04:38:48;10.80;99.90
51615;DHT22;37695;52.960;6.188;2022-11-03T04:41:17;10.80;99.90
51615;DHT22;37695;52.960;6.188;2022-11-03T04:43:44;10.80;99.90
51615;DHT22;37695;52.960;6.188;2022-11-03T04:46:12;10.80;99.90
51615;DHT22;37695;52.960;6.188;2022-11-03T04:48:40;10.80;99.90
51615;DHT22;37695;52.960;6.188;2022-11-03T04:51:17;10.70;99.90
51615;DHT22;37695;52.960;6.188;2022-11-03T04:53:49;10.70;99.90
51615;DHT22;37695;52.960;6.188;2022-11-03T04:56:19;10.80;99.90
51615;DHT22;37695;52.960;6.188;2022-11-03T04:58:44;10.80;99.90
51615;DHT22;37695;52.960;6.188;2022-11-03T05:01:14;10.80;99.90
51615;DHT22;37695;52.960;6.188;2022-11-03T05:03:41;10.90;99.90
51615;DHT22;37695;52.960;6.188;2022-11-03T05:06:15;10.90;99.90
51615;DHT22;37695;52.960;6.188;2022-11-03T05:08:44;10.90;99.90
51615;DHT22;37695;52.960;6.188;2022-11-03T05:11:18;10.90;99.90
51615;DHT22;37695;52.960;6.188;2022-11-03T05:13:45;10.90;99.90
51615;DHT22;37695;52.960;6.188;2022-11-03T05:16:10;10.90;99.90
51615;DHT22;37695;52.960;6.188;2022-11-03T05:18:38;10.90;99.90
51615;DHT22;37695;52.960;6.188;2022-11-03T05:21:11;10.90;99.90
51615;DHT22;37695;52.960;6.188;2022-11-03T05:23:49;10.90;99.90
51615;DHT22;37695;52.960;6.188;2022-11-03T05:26:19;10.90;99.90
51615;DHT22;37695;52.960;6.188;2022-11-03T05:28:51;10.80;99.90
51615;DHT22;37695;52.960;6.188;2022-11-03T05:31:25;10.80;99.90
51615;DHT22;37695;52.960;6.188;2022-11-03T05:33:55;10.80;99.90
51615;DHT22;37695;52.960;6.188;2022-11-03T05:36:25;10.80;99.90
51615;DHT22;37695;52.960;6.188;2022-11-03T05:38:55;10.80;99.90
51615;DHT22;37695;52.960;6.188;2022-11-03T05:41:25;10.80;99.90
51615;DHT22;37695;52.960;6.188;2022-11-03T05:44:13;10.80;99.90
51615;DHT22;37695;52.960;6.188;2022-11-03T05:46:44;10.70;99.90
51615;DHT22;37695;52.960;6.188;2022-11-03T05:49:09;10.70;99.90
51615;DHT22;37695;52.960;6.188;2022-11-03T05:51:41;10.70;99.90
51615;DHT22;37695;52.960;6.188;2022-11-03T05:54:30;10.70;99.90
51615;DHT22;37695;52.960;6.188;2022-11-03T05:56:56;10.70;99.90
51615;DHT22;37695;52.960;6.188;2022-11-03T05:59:25;10.70;99.90
51615;DHT22;37695;52.960;6.188;2022-11-03T06:01:52;10.70;99.90
51615;DHT22;37695;52.960;6.188;2022-11-03T06:04:28;10.70;99.90
51615;DHT22;37695;52.960;6.188;2022-11-03T06:07:02;10.70;99.90
51615;DHT22;37695;52.960;6.188;2022-11-03T06:09:28;10.70;99.90
51615;DHT22;37695;52.960;6.188;2022-11-03T06:11:58;10.70;99.90
51615;DHT22;37695;52.960;6.188;2022-11-03T06:14:27;10.80;99.90
51615;DHT22;37695;52.960;6.188;2022-11-03T06:17:00;10.70;99.90
51615;DHT22;37695;52.960;6.188;2022-11-03T06:19:41;10.70;99.90
51615;DHT22;37695;52.960;6.188;2022-11-03T06:22:35;10.70;99.90
51615;DHT22;37695;52.960;6.188;2022-11-03T06:27:41;10.60;99.90
51615;DHT22;37695;52.960;6.188;2022-11-03T06:30:28;10.60;99.90
51615;DHT22;37695;52.960;6.188;2022-11-03T06:32:57;10.70;99.90
51615;DHT22;37695;52.960;6.188;2022-11-03T06:35:23;10.70;99.90
51615;DHT22;37695;52.960;6.188;2022-11-03T06:37:49;10.70;99.90
51615;DHT22;37695;52.960;6.188;2022-11-03T06:42:41;10.70;99.90
51615;DHT22;37695;52.960;6.188;2022-11-03T06:45:17;10.70;99.90
51615;DHT22;37695;52.960;6.188;2022-11-03T06:47:45;10.80;99.90
51615;DHT22;37695;52.960;6.188;2022-11-03T06:50:28;10.80;99.90
51615;DHT22;37695;52.960;6.188;2022-11-03T06:52:55;10.80;99.90
51615;DHT22;37695;52.960;6.188;2022-11-03T06:55:25;10.80;99.90
51615;DHT22;37695;52.960;6.188;2022-11-03T06:57:57;10.80;99.90
51615;DHT22;37695;52.960;6.188;2022-11-03T07:00:25;10.80;99.90
51615;DHT22;37695;52.960;6.188;2022-11-03T07:05:34;10.90;99.90
51615;DHT22;37695;52.960;6.188;2022-11-03T07:10:37;10.90;99.90
51615;DHT22;37695;52.960;6.188;2022-11-03T07:13:13;11.00;99.90
51615;DHT22;37695;52.960;6.188;2022-11-03T07:15:41;11.00;99.90
51615;DHT22;37695;52.960;6.188;2022-11-03T07:18:24;11.00;99.90
51615;DHT22;37695;52.960;6.188;2022-11-03T07:20:52;11.00;99.90
51615;DHT22;37695;52.960;6.188;2022-11-03T07:23:21;11.00;99.90
51615;DHT22;37695;52.960;6.188;2022-11-03T07:25:50;11.00;99.90
51615;DHT22;37695;52.960;6.188;2022-11-03T07:28:23;11.00;99.90
51615;DHT22;37695;52.960;6.188;2022-11-03T07:30:49;11.10;99.90
51615;DHT22;37695;52.960;6.188;2022-11-03T07:33:23;11.10;99.90
51615;DHT22;37695;52.960;6.188;2022-11-03T07:35:51;11.10;99.90
51615;DHT22;37695;52.960;6.188;2022-11-03T07:38:20;11.20;99.90
51615;DHT22;37695;52.960;6.188;2022-11-03T07:40:48;11.20;99.90
51615;DHT22;37695;52.960;6.188;2022-11-03T07:43:34;11.20;99.90
51615;DHT22;37695;52.960;6.188;2022-11-03T07:46:02;11.20;99.90
51615;DHT22;37695;52.960;6.188;2022-11-03T07:51:24;11.40;99.90
51615;DHT22;37695;52.960;6.188;2022-11-03T07:53:53;11.40;99.90
51615;DHT22;37695;52.960;6.188;2022-11-03T07:56:20;11.50;99.90
51615;DHT22;37695;52.960;6.188;2022-11-03T08:01:41;11.50;99.90
51615;DHT22;37695;52.960;6.188;2022-11-03T08:04:37;11.60;99.90
51615;DHT22;37695;52.960;6.188;2022-11-03T08:07:02;11.70;99.90
51615;DHT22;37695;52.960;6.188;2022-11-03T08:09:28;11.70;99.90
51615;DHT22;37695;52.960;6.188;2022-11-03T08:11:53;11.70;99.90
51615;DHT22;37695;52.960;6.188;2022-11-03T08:14:19;11.70;99.90
51615;DHT22;37695;52.960;6.188;2022-11-03T08:16:45;11.80;99.90
51615;DHT22;37695;52.960;6.188;2022-11-03T08:19:10;11.80;99.90
51615;DHT22;37695;52.960;6.188;2022-11-03T08:21:36;11.90;99.90
51615;DHT22;37695;52.960;6.188;2022-11-03T08:24:02;12.80;99.90
51615;DHT22;37695;52.960;6.188;2022-11-03T08:26:28;12.00;99.90
51615;DHT22;37695;52.960;6.188;2022-11-03T08:28:54;12.10;99.90
51615;DHT22;37695;52.960;6.188;2022-11-03T08:31:19;12.10;99.90
51615;DHT22;37695;52.960;6.188;2022-11-03T08:33:45;12.20;99.90
51615;DHT22;37695;52.960;6.188;2022-11-03T08:36:10;12.20;99.90
51615;DHT22;37695;52.960;6.188;2022-11-03T08:38:36;12.20;99.90
51615;DHT22;37695;52.960;6.188;2022-11-03T08:41:02;12.20;99.90
51615;DHT22;37695;52.960;6.188;2022-11-03T08:43:28;12.20;99.90
51615;DHT22;37695;52.960;6.188;2022-11-03T08:45:54;12.20;99.90
51615;DHT22;37695;52.960;6.188;2022-11-03T08:48:20;12.30;99.90
51615;DHT22;37695;52.960;6.188;2022-11-03T08:50:47;12.30;99.90
51615;DHT22;37695;52.960;6.188;2022-11-03T08:53:15;12.30;99.90
51615;DHT22;37695;52.960;6.188;2022-11-03T08:55:40;12.40;99.90
51615;DHT22;37695;52.960;6.188;2022-11-03T08:58:06;12.40;99.90
51615;DHT22;37695;52.960;6.188;2022-11-03T09:00:32;12.40;99.90
51615;DHT22;37695;52.960;6.188;2022-11-03T09:02:57;12.50;99.90
51615;DHT22;37695;52.960;6.188;2022-11-03T09:05:23;12.50;99.90
51615;DHT22;37695;52.960;6.188;2022-11-03T09:07:48;12.50;99.90
51615;DHT22;37695;52.960;6.188;2022-11-03T09:10:14;12.60;99.90
51615;DHT22;37695;52.960;6.188;2022-11-03T09:12:39;12.60;99.90
51615;DHT22;37695;52.960;6.188;2022-11-03T09:15:05;12.70;99.90
51615;DHT22;37695;52.960;6.188;2022-11-03T09:17:31;12.70;99.90
51615;DHT22;37695;52.960;6.188;2022-11-03T09:19:56;12.80;99.90
51615;DHT22;37695;52.960;6.188;2022-11-03T09:22:22;12.80;99.90
51615;DHT22;37695;52.960;6.188;2022-11-03T09:24:48;12.80;99.90
51615;DHT22;37695;52.960;6.188;2022-11-03T09:27:13;12.90;99.90
51615;DHT22;37695;52.960;6.188;2022-11-03T09:29:39;12.90;99.90
51615;DHT22;37695;52.960;6.188;2022-11-03T09:32:05;12.90;99.90
51615;DHT22;37695;52.960;6.188;2022-11-03T09:34:31;13.00;99.90
51615;DHT22;37695;52.960;6.188;2022-11-03T09:36:56;13.10;99.90
51615;DHT22;37695;52.960;6.188;2022-11-03T09:39:22;13.10;99.90
51615;DHT22;37695;52.960;6.188;2022-11-03T09:41:48;13.20;99.90
51615;DHT22;37695;52.960;6.188;2022-11-03T09:44:13;13.30;99.90
51615;DHT22;37695;52.960;6.188;2022-11-03T09:46:39;13.30;99.90
51615;DHT22;37695;52.960;6.188;2022-11-03T09:49:05;13.40;99.90
51615;DHT22;37695;52.960;6.188;2022-11-03T09:51:33;13.40;99.90
51615;DHT22;37695;52.960;6.188;2022-11-03T09:54:02;13.50;99.90
51615;DHT22;37695;52.960;6.188;2022-11-03T09:56:29;13.50;99.90
51615;DHT22;37695;52.960;6.188;2022-11-03T09:58:55;13.50;99.90
51615;DHT22;37695;52.960;6.188;2022-11-03T10:01:21;13.50;99.90
51615;DHT22;37695;52.960;6.188;2022-11-03T10:03:47;13.50;99.90
51615;DHT22;37695;52.960;6.188;2022-11-03T10:06:13;13.50;99.90
51615;DHT22;37695;52.960;6.188;2022-11-03T10:08:42;13.50;99.90
51615;DHT22;37695;52.960;6.188;2022-11-03T10:11:09;13.50;99.90
51615;DHT22;37695;52.960;6.188;2022-11-03T10:13:47;13.60;99.90
51615;DHT22;37695;52.960;6.188;2022-11-03T10:16:18;13.60;99.90
51615;DHT22;37695;52.960;6.188;2022-11-03T10:18:45;13.60;99.90
51615;DHT22;37695;52.960;6.188;2022-11-03T10:21:17;13.70;99.90
51615;DHT22;37695;52.960;6.188;2022-11-03T10:23:44;13.70;99.90
51615;DHT22;37695;52.960;6.188;2022-11-03T10:26:13;13.80;99.90
51615;DHT22;37695;52.960;6.188;2022-11-03T10:29:03;13.80;99.90
51615;DHT22;37695;52.960;6.188;2022-11-03T10:31:38;13.90;99.90
51615;DHT22;37695;52.960;6.188;2022-11-03T10:34:05;14.00;99.90
51615;DHT22;37695;52.960;6.188;2022-11-03T10:36:33;14.00;99.90
51615;DHT22;37695;52.960;6.188;2022-11-03T10:38:59;14.00;99.90
51615;DHT22;37695;52.960;6.188;2022-11-03T10:41:55;14.20;99.90
51615;DHT22;37695;52.960;6.188;2022-11-03T10:44:25;14.20;99.90
51615;DHT22;37695;52.960;6.188;2022-11-03T10:46:57;14.20;99.90
51615;DHT22;37695;52.960;6.188;2022-11-03T10:49:23;14.20;99.90
51615;DHT22;37695;52.960;6.188;2022-11-03T10:51:53;14.30;99.90
51615;DHT22;37695;52.960;6.188;2022-11-03T10:54:23;14.30;99.90
51615;DHT22;37695;52.960;6.188;2022-11-03T10:56:49;14.40;99.90
51615;DHT22;37695;52.960;6.188;2022-11-03T10:59:21;14.50;99.90
51615;DHT22;37695;52.960;6.188;2022-11-03T11:01:49;14.60;99.90
51615;DHT22;37695;52.960;6.188;2022-11-03T11:04:19;14.60;99.90
51615;DHT22;37695;52.960;6.188;2022-11-03T11:06:45;14.60;99.90
51615;DHT22;37695;52.960;6.188;2022-11-03T11:09:21;14.70;99.90
51615;DHT22;37695;52.960;6.188;2022-11-03T11:16:54;14.80;99.90
51615;DHT22;37695;52.960;6.188;2022-11-03T11:19:22;14.80;99.90
51615;DHT22;37695;52.960;6.188;2022-11-03T11:21:49;14.90;99.90
51615;DHT22;37695;52.960;6.188;2022-11-03T11:29:57;14.90;99.90
51615;DHT22;37695;52.960;6.188;2022-11-03T11:37:51;14.80;99.90
51615;DHT22;37695;52.960;6.188;2022-11-03T11:48:30;14.80;99.90
51615;DHT22;37695;52.960;6.188;2022-11-03T11:50:57;14.80;99.90
51615;DHT22;37695;52.960;6.188;2022-11-03T11:53:23;14.90;99.90
51615;DHT22;37695;52.960;6.188;2022-11-03T11:55:57;14.80;99.90
51615;DHT22;37695;52.960;6.188;2022-11-03T12:03:49;14.80;99.90
51615;DHT22;37695;52.960;6.188;2022-11-03T12:06:16;14.80;99.90
51615;DHT22;37695;52.960;6.188;2022-11-03T12:08:42;14.90;99.90
51615;DHT22;37695;52.960;6.188;2022-11-03T12:11:10;14.90;99.90
51615;DHT22;37695;52.960;6.188;2022-11-03T12:13:46;14.80;99.90
51615;DHT22;37695;52.960;6.188;2022-11-03T12:16:29;14.80;99.90
51615;DHT22;37695;52.960;6.188;2022-11-03T12:18:55;14.80;99.90
51615;DHT22;37695;52.960;6.188;2022-11-03T12:21:43;14.80;99.90
51615;DHT22;37695;52.960;6.188;2022-11-03T12:27:00;14.80;99.90
51615;DHT22;37695;52.960;6.188;2022-11-03T12:29:26;14.90;99.90
51615;DHT22;37695;52.960;6.188;2022-11-03T12:31:51;14.90;99.90
51615;DHT22;37695;52.960;6.188;2022-11-03T12:34:17;14.90;99.90
51615;DHT22;37695;52.960;6.188;2022-11-03T12:36:44;14.90;99.90
51615;DHT22;37695;52.960;6.188;2022-11-03T12:39:10;14.90;99.90
51615;DHT22;37695;52.960;6.188;2022-11-03T12:41:36;14.90;99.90
51615;DHT22;37695;52.960;6.188;2022-11-03T12:44:02;14.90;99.90
51615;DHT22;37695;52.960;6.188;2022-11-03T12:46:28;14.90;99.90
51615;DHT22;37695;52.960;6.188;2022-11-03T12:48:54;14.90;99.90
51615;DHT22;37695;52.960;6.188;2022-11-03T12:51:21;14.90;99.90
51615;DHT22;37695;52.960;6.188;2022-11-03T12:53:47;14.90;99.90
51615;DHT22;37695;52.960;6.188;2022-11-03T12:56:14;15.00;99.90
51615;DHT22;37695;52.960;6.188;2022-11-03T12:58:40;15.00;99.90
51615;DHT22;37695;52.960;6.188;2022-11-03T13:01:06;15.00;99.90
51615;DHT22;37695;52.960;6.188;2022-11-03T13:03:33;15.00;99.90
51615;DHT22;37695;52.960;6.188;2022-11-03T13:05:59;15.00;99.90
51615;DHT22;37695;52.960;6.188;2022-11-03T13:08:25;15.00;99.90
51615;DHT22;37695;52.960;6.188;2022-11-03T13:10:51;14.90;99.90
51615;DHT22;37695;52.960;6.188;2022-11-03T13:13:18;14.90;99.90
51615;DHT22;37695;52.960;6.188;2022-11-03T13:15:44;14.90;99.90
51615;DHT22;37695;52.960;6.188;2022-11-03T13:18:09;14.90;99.90
51615;DHT22;37695;52.960;6.188;2022-11-03T13:20:35;14.90;99.90
51615;DHT22;37695;52.960;6.188;2022-11-03T13:23:02;14.90;99.90
51615;DHT22;37695;52.960;6.188;2022-11-03T13:25:28;14.90;99.90
51615;DHT22;37695;52.960;6.188;2022-11-03T13:27:54;14.90;99.90
51615;DHT22;37695;52.960;6.188;2022-11-03T13:30:20;14.90;99.90
51615;DHT22;37695;52.960;6.188;2022-11-03T13:32:46;14.80;99.90
51615;DHT22;37695;52.960;6.188;2022-11-03T13:35:12;14.90;99.90
51615;DHT22;37695;52.960;6.188;2022-11-03T13:37:38;14.90;99.90
51615;DHT22;37695;52.960;6.188;2022-11-03T13:40:05;14.90;99.90
51615;DHT22;37695;52.960;6.188;2022-11-03T13:42:30;15.00;99.90
51615;DHT22;37695;52.960;6.188;2022-11-03T13:44:56;15.00;99.90
51615;DHT22;37695;52.960;6.188;2022-11-03T13:47:22;15.00;99.90
51615;DHT22;37695;52.960;6.188;2022-11-03T13:49:47;15.00;99.90
51615;DHT22;37695;52.960;6.188;2022-11-03T13:52:17;15.00;99.90
51615;DHT22;37695;52.960;6.188;2022-11-03T13:54:43;15.20;99.90
51615;DHT22;37695;52.960;6.188;2022-11-03T13:57:09;15.00;99.90
51615;DHT22;37695;52.960;6.188;2022-11-03T13:59:34;15.00;99.90
51615;DHT22;37695;52.960;6.188;2022-11-03T14:02:00;15.00;99.90
51615;DHT22;37695;52.960;6.188;2022-11-03T14:04:26;15.00;99.90
51615;DHT22;37695;52.960;6.188;2022-11-03T14:06:51;14.90;99.90
51615;DHT22;37695;52.960;6.188;2022-11-03T14:09:17;14.90;99.90
51615;DHT22;37695;52.960;6.188;2022-11-03T14:11:42;14.80;99.90
51615;DHT22;37695;52.960;6.188;2022-11-03T14:14:26;14.70;99.90
51615;DHT22;37695;52.960;6.188;2022-11-03T14:16:52;14.70;99.90
51615;DHT22;37695;52.960;6.188;2022-11-03T14:19:17;14.60;99.90
51615;DHT22;37695;52.960;6.188;2022-11-03T14:21:43;14.60;99.90
51615;DHT22;37695;52.960;6.188;2022-11-03T14:24:08;14.60;99.90
51615;DHT22;37695;52.960;6.188;2022-11-03T14:26:34;14.50;99.90
51615;DHT22;37695;52.960;6.188;2022-11-03T14:29:00;14.50;99.90
51615;DHT22;37695;52.960;6.188;2022-11-03T14:31:25;14.50;99.90
51615;DHT22;37695;52.960;6.188;2022-11-03T14:33:51;14.60;99.90
51615;DHT22;37695;52.960;6.188;2022-11-03T14:36:16;14.60;99.90
51615;DHT22;37695;52.960;6.188;2022-11-03T14:38:42;14.60;99.90
51615;DHT22;37695;52.960;6.188;2022-11-03T14:41:07;14.70;99.90
51615;DHT22;37695;52.960;6.188;2022-11-03T14:43:51;14.70;99.90
51615;DHT22;37695;52.960;6.188;2022-11-03T14:46:17;14.80;99.90
51615;DHT22;37695;52.960;6.188;2022-11-03T14:48:42;14.80;99.90
51615;DHT22;37695;52.960;6.188;2022-11-03T14:51:08;14.70;99.90
51615;DHT22;37695;52.960;6.188;2022-11-03T14:53:34;14.70;99.90
51615;DHT22;37695;52.960;6.188;2022-11-03T14:56:00;14.60;99.90
51615;DHT22;37695;52.960;6.188;2022-11-03T14:58:25;14.60;99.90
51615;DHT22;37695;52.960;6.188;2022-11-03T15:00:51;14.60;99.90
51615;DHT22;37695;52.960;6.188;2022-11-03T15:03:16;14.60;99.90
51615;DHT22;37695;52.960;6.188;2022-11-03T15:05:42;14.60;99.90
51615;DHT22;37695;52.960;6.188;2022-11-03T15:08:15;14.50;99.90
51615;DHT22;37695;52.960;6.188;2022-11-03T15:10:41;14.50;99.90
51615;DHT22;37695;52.960;6.188;2022-11-03T15:13:07;14.40;99.90
51615;DHT22;37695;52.960;6.188;2022-11-03T15:15:33;14.40;99.90
51615;DHT22;37695;52.960;6.188;2022-11-03T15:18:01;14.40;99.90
51615;DHT22;37695;52.960;6.188;2022-11-03T15:20:27;14.30;99.90
51615;DHT22;37695;52.960;6.188;2022-11-03T15:22:52;14.30;99.90
51615;DHT22;37695;52.960;6.188;2022-11-03T15:25:17;14.30;99.90
51615;DHT22;37695;52.960;6.188;2022-11-03T15:27:43;14.20;99.90
51615;DHT22;37695;52.960;6.188;2022-11-03T15:30:10;14.20;99.90
51615;DHT22;37695;52.960;6.188;2022-11-03T15:32:36;14.20;99.90
51615;DHT22;37695;52.960;6.188;2022-11-03T15:35:01;14.20;99.90
51615;DHT22;37695;52.960;6.188;2022-11-03T15:37:27;14.10;99.90
51615;DHT22;37695;52.960;6.188;2022-11-03T15:39:52;14.10;99.90
51615;DHT22;37695;52.960;6.188;2022-11-03T15:42:18;14.10;99.90
51615;DHT22;37695;52.960;6.188;2022-11-03T15:44:43;14.10;99.90
51615;DHT22;37695;52.960;6.188;2022-11-03T15:47:09;14.10;99.90
51615;DHT22;37695;52.960;6.188;2022-11-03T15:49:35;14.00;99.90
51615;DHT22;37695;52.960;6.188;2022-11-03T15:52:00;14.10;99.90
51615;DHT22;37695;52.960;6.188;2022-11-03T15:54:26;14.00;99.90
51615;DHT22;37695;52.960;6.188;2022-11-03T15:56:51;14.00;99.90
51615;DHT22;37695;52.960;6.188;2022-11-03T15:59:17;14.00;99.90
51615;DHT22;37695;52.960;6.188;2022-11-03T16:01:43;14.00;99.90
51615;DHT22;37695;52.960;6.188;2022-11-03T16:04:09;14.00;99.90
51615;DHT22;37695;52.960;6.188;2022-11-03T16:06:34;14.00;99.90
51615;DHT22;37695;52.960;6.188;2022-11-03T16:09:00;13.90;99.90
51615;DHT22;37695;52.960;6.188;2022-11-03T16:11:25;14.00;99.90
51615;DHT22;37695;52.960;6.188;2022-11-03T16:13:51;14.00;99.90
51615;DHT22;37695;52.960;6.188;2022-11-03T16:16:16;13.90;99.90
51615;DHT22;37695;52.960;6.188;2022-11-03T16:18:42;13.90;99.90
51615;DHT22;37695;52.960;6.188;2022-11-03T16:21:07;13.90;99.90
51615;DHT22;37695;52.960;6.188;2022-11-03T16:23:33;13.80;99.90
51615;DHT22;37695;52.960;6.188;2022-11-03T16:25:59;13.80;99.90
51615;DHT22;37695;52.960;6.188;2022-11-03T16:28:24;13.80;99.90
51615;DHT22;37695;52.960;6.188;2022-11-03T16:30:50;13.80;99.90
51615;DHT22;37695;52.960;6.188;2022-11-03T16:33:16;13.80;99.90
51615;DHT22;37695;52.960;6.188;2022-11-03T16:35:41;13.80;99.90
51615;DHT22;37695;52.960;6.188;2022-11-03T16:38:07;13.80;99.90